createdAt,value
2022-07-29T00:01:42.413Z,1.53
2022-07-29T00:04:10.199Z,1.93
2022-07-29T00:06:39.304Z,1.70
2022-07-29T00:09:07.611Z,1.83
2022-07-29T00:11:35.451Z,1.93
2022-07-29T00:14:03.130Z,2.30
2022-07-29T00:16:30.933Z,1.90
2022-07-29T00:19:02.122Z,1.40
2022-07-29T00:21:30.283Z,1.77
2022-07-29T00:23:59.256Z,2.03
2022-07-29T00:26:28.708Z,1.80
2022-07-29T00:29:23.709Z,1.67
2022-07-29T00:31:44.017Z,2.03
2022-07-29T00:34:31.683Z,1.50
2022-07-29T00:36:58.720Z,1.90
2022-07-29T00:39:27.844Z,1.67
2022-07-29T00:41:56.625Z,1.93
2022-07-29T00:44:24.378Z,1.93
2022-07-29T00:46:52.053Z,2.20
2022-07-29T00:49:19.845Z,2.20
2022-07-29T00:51:47.741Z,1.50
2022-07-29T00:54:15.835Z,1.60
2022-07-29T00:56:45.846Z,1.83
2022-07-29T00:59:13.569Z,1.80
2022-07-29T01:01:41.265Z,2.00
2022-07-29T01:04:09.101Z,1.97
2022-07-29T01:06:36.967Z,1.90
2022-07-29T01:09:04.784Z,1.97
2022-07-29T01:11:32.820Z,1.73
2022-07-29T01:14:03.198Z,1.63
2022-07-29T01:16:34.921Z,1.80
2022-07-29T01:19:09.824Z,2.17
2022-07-29T01:21:53.324Z,1.50
2022-07-29T01:24:35.911Z,1.47
2022-07-29T01:27:18.176Z,1.67
2022-07-29T01:29:51.227Z,1.93
2022-07-29T01:32:27.928Z,2.37
2022-07-29T01:35:01.986Z,1.40
2022-07-29T01:37:36.825Z,2.10
2022-07-29T01:40:06.776Z,1.70
2022-07-29T01:42:38.633Z,2.10
2022-07-29T01:45:12.949Z,1.70
2022-07-29T01:47:45.295Z,1.93
2022-07-29T01:50:16.829Z,2.07
2022-07-29T01:52:48.768Z,2.10
2022-07-29T01:55:19.725Z,1.73
2022-07-29T01:57:49.665Z,2.23
2022-07-29T02:00:19.661Z,1.97
2022-07-29T02:02:49.826Z,2.20
2022-07-29T02:05:21.060Z,2.20
2022-07-29T02:07:50.006Z,1.67
2022-07-29T02:10:20.735Z,2.03
2022-07-29T02:12:55.959Z,1.80
2022-07-29T02:15:26.133Z,1.43
2022-07-29T02:17:58.368Z,1.90
2022-07-29T02:20:28.129Z,2.30
2022-07-29T02:22:57.410Z,2.00
2022-07-29T02:25:37.315Z,1.97
2022-07-29T02:28:07.872Z,1.70
2022-07-29T02:30:41.216Z,1.60
2022-07-29T02:33:10.571Z,1.70
2022-07-29T02:35:39.380Z,1.83
2022-07-29T02:38:33.362Z,1.97
2022-07-29T02:41:03.189Z,2.80
2022-07-29T02:43:33.656Z,1.97
2022-07-29T02:46:05.774Z,1.87
2022-07-29T02:48:46.068Z,1.80
2022-07-29T02:51:41.395Z,2.40
2022-07-29T02:54:09.729Z,2.17
2022-07-29T02:56:40.147Z,1.80
2022-07-29T02:59:12.037Z,1.80
2022-07-29T03:01:43.846Z,2.03
2022-07-29T03:04:14.144Z,1.67
2022-07-29T03:06:44.186Z,2.10
2022-07-29T03:09:13.773Z,1.80
2022-07-29T03:11:50.128Z,1.43
2022-07-29T03:14:20.741Z,1.90
2022-07-29T03:16:50.681Z,2.03
2022-07-29T03:19:19.154Z,1.80
2022-07-29T03:21:46.863Z,1.63
2022-07-29T03:24:27.036Z,1.63
2022-07-29T03:26:56.221Z,1.90
2022-07-29T03:29:24.034Z,1.77
2022-07-29T03:31:53.825Z,2.27
2022-07-29T03:34:23.431Z,2.03
2022-07-29T03:36:51.759Z,2.37
2022-07-29T03:39:23.858Z,2.47
2022-07-29T03:41:57.120Z,2.77
2022-07-29T03:44:27.880Z,2.87
2022-07-29T03:46:59.501Z,3.37
2022-07-29T03:49:28.527Z,2.90
2022-07-29T03:51:56.728Z,3.10
2022-07-29T03:54:24.731Z,2.50
2022-07-29T03:56:54.734Z,2.63
2022-07-29T03:59:23.390Z,1.80
2022-07-29T04:01:52.396Z,2.23
2022-07-29T04:04:21.851Z,2.47
2022-07-29T04:06:49.722Z,1.57
2022-07-29T04:09:17.431Z,2.77
2022-07-29T04:12:01.889Z,2.40
2022-07-29T04:14:32.487Z,2.10
2022-07-29T04:17:00.640Z,2.33
2022-07-29T04:19:29.729Z,2.10
2022-07-29T04:21:57.427Z,2.13
2022-07-29T04:24:25.075Z,1.87
2022-07-29T04:26:53.493Z,2.20
2022-07-29T04:29:21.520Z,2.37
2022-07-29T04:31:49.201Z,2.67
2022-07-29T04:34:17.272Z,2.33
2022-07-29T04:36:46.505Z,1.83
2022-07-29T04:39:17.041Z,2.30
2022-07-29T04:41:47.046Z,2.53
2022-07-29T04:44:15.011Z,2.33
2022-07-29T04:46:42.890Z,2.00
2022-07-29T04:49:10.714Z,2.23
2022-07-29T04:51:38.830Z,2.57
2022-07-29T04:54:08.441Z,3.10
2022-07-29T04:56:36.098Z,2.77
2022-07-29T04:59:03.741Z,2.63
2022-07-29T05:01:31.412Z,2.43
2022-07-29T05:04:00.630Z,2.77
2022-07-29T05:06:28.698Z,2.57
2022-07-29T05:08:56.388Z,2.60
2022-07-29T05:11:30.096Z,2.33
2022-07-29T05:13:58.140Z,3.13
2022-07-29T05:16:25.859Z,2.70
2022-07-29T05:18:53.529Z,2.97
2022-07-29T05:21:21.140Z,2.30
2022-07-29T05:23:48.794Z,2.77
2022-07-29T05:26:16.427Z,1.93
2022-07-29T05:28:45.496Z,2.70
2022-07-29T05:31:15.447Z,1.90
2022-07-29T05:33:43.334Z,2.73
2022-07-29T05:36:10.962Z,2.30
2022-07-29T05:38:38.571Z,2.97
2022-07-29T05:41:06.359Z,2.63
2022-07-29T05:43:34.337Z,2.10
2022-07-29T05:46:03.299Z,2.00
2022-07-29T05:48:31.065Z,1.87
2022-07-29T05:50:58.721Z,2.10
2022-07-29T05:53:26.425Z,2.50
2022-07-29T05:55:54.129Z,2.37
2022-07-29T05:58:21.850Z,2.77
2022-07-29T06:00:49.576Z,2.13
2022-07-29T06:03:18.580Z,2.40
2022-07-29T06:05:46.325Z,2.60
2022-07-29T06:08:13.942Z,2.40
2022-07-29T06:10:41.615Z,2.07
2022-07-29T06:13:09.246Z,2.13
2022-07-29T06:15:37.053Z,2.10
2022-07-29T06:18:04.763Z,2.70
2022-07-29T06:20:34.591Z,2.50
2022-07-29T06:23:02.296Z,2.70
2022-07-29T06:25:31.172Z,2.57
2022-07-29T06:27:59.222Z,2.50
2022-07-29T06:30:27.556Z,2.17
2022-07-29T06:32:55.364Z,2.37
2022-07-29T06:35:42.018Z,2.13
2022-07-29T06:38:31.041Z,2.60
2022-07-29T06:41:04.640Z,3.07
2022-07-29T06:43:34.877Z,2.90
2022-07-29T06:46:04.151Z,2.93
2022-07-29T06:48:32.165Z,3.67
2022-07-29T06:50:59.960Z,3.23
2022-07-29T06:53:29.130Z,4.10
2022-07-29T06:55:57.031Z,3.00
2022-07-29T06:58:24.635Z,2.80
2022-07-29T07:00:59.099Z,2.80
2022-07-29T07:03:27.367Z,3.20
2022-07-29T07:05:56.102Z,2.17
2022-07-29T07:08:24.719Z,2.43
2022-07-29T07:10:54.443Z,2.93
2022-07-29T07:13:22.076Z,2.93
2022-07-29T07:15:49.731Z,2.93
2022-07-29T07:18:17.841Z,2.60
2022-07-29T07:20:46.087Z,2.57
2022-07-29T07:23:13.708Z,3.03
2022-07-29T07:25:41.363Z,3.83
2022-07-29T07:28:10.540Z,3.70
2022-07-29T07:30:38.724Z,3.90
2022-07-29T07:33:06.540Z,2.73
2022-07-29T07:35:34.704Z,2.90
2022-07-29T07:38:02.330Z,2.43
2022-07-29T07:40:30.160Z,3.50
2022-07-29T07:42:57.834Z,3.03
2022-07-29T07:45:28.304Z,2.67
2022-07-29T07:47:55.966Z,2.47
2022-07-29T07:50:23.619Z,2.70
2022-07-29T07:52:53.856Z,2.53
2022-07-29T07:55:21.887Z,2.70
2022-07-29T07:57:49.531Z,3.10
2022-07-29T08:00:18.283Z,2.43
2022-07-29T08:02:47.396Z,2.50
2022-07-29T08:05:18.002Z,2.60
2022-07-29T08:07:47.654Z,2.97
2022-07-29T08:10:16.001Z,2.80
2022-07-29T08:12:45.419Z,3.30
2022-07-29T08:15:13.042Z,2.83
2022-07-29T08:17:40.689Z,2.90
2022-07-29T08:20:10.401Z,2.50
2022-07-29T08:22:38.047Z,3.10
2022-07-29T08:25:06.480Z,2.90
2022-07-29T08:27:43.461Z,2.80
2022-07-29T08:30:12.375Z,2.80
2022-07-29T08:32:56.248Z,2.50
2022-07-29T08:35:26.267Z,3.27
2022-07-29T08:37:54.828Z,2.00
2022-07-29T08:40:30.585Z,2.70
2022-07-29T08:43:01.149Z,2.63
2022-07-29T08:45:31.404Z,2.80
2022-07-29T08:47:59.110Z,2.20
2022-07-29T08:50:28.106Z,3.33
2022-07-29T08:52:59.757Z,3.00
2022-07-29T08:55:28.688Z,2.30
2022-07-29T08:57:57.510Z,3.50
2022-07-29T09:00:26.408Z,2.57
2022-07-29T09:02:59.649Z,2.73
2022-07-29T09:05:30.104Z,3.33
2022-07-29T09:07:58.305Z,2.63
2022-07-29T09:10:26.139Z,2.70
2022-07-29T09:12:54.183Z,2.80
2022-07-29T09:15:21.827Z,3.40
2022-07-29T09:17:51.191Z,3.07
2022-07-29T09:20:20.412Z,3.67
2022-07-29T09:22:50.390Z,3.50
2022-07-29T09:25:35.702Z,3.80
2022-07-29T09:28:10.484Z,3.83
2022-07-29T09:30:52.604Z,4.60
2022-07-29T09:33:22.369Z,4.47
2022-07-29T09:36:01.829Z,3.87
2022-07-29T09:38:31.697Z,3.47
2022-07-29T09:41:05.459Z,4.20
2022-07-29T09:43:35.040Z,4.33
2022-07-29T09:46:12.571Z,3.33
2022-07-29T09:48:40.518Z,4.00
2022-07-29T09:51:21.394Z,3.73
2022-07-29T09:53:53.667Z,3.63
2022-07-29T09:56:21.530Z,3.47
2022-07-29T09:58:49.132Z,3.90
2022-07-29T10:01:17.077Z,4.40
2022-07-29T10:03:54.339Z,3.80
2022-07-29T10:06:22.133Z,3.60
2022-07-29T10:08:50.522Z,4.33
2022-07-29T10:11:21.056Z,4.03
2022-07-29T10:13:50.056Z,3.03
2022-07-29T10:16:18.794Z,3.10
2022-07-29T10:18:47.718Z,3.63
2022-07-29T10:21:22.636Z,4.37
2022-07-29T10:24:03.323Z,3.97
2022-07-29T10:26:32.634Z,3.67
2022-07-29T10:29:00.507Z,3.77
2022-07-29T10:31:36.087Z,3.60
2022-07-29T10:34:12.382Z,3.90
2022-07-29T10:36:52.844Z,3.40
2022-07-29T10:39:41.779Z,4.40
2022-07-29T10:42:20.359Z,3.20
2022-07-29T10:45:01.489Z,3.97
2022-07-29T10:47:29.487Z,3.97
2022-07-29T10:49:59.293Z,3.53
2022-07-29T10:52:58.457Z,4.20
2022-07-29T10:55:37.646Z,4.20
2022-07-29T10:58:18.827Z,2.90
2022-07-29T11:00:49.486Z,3.97
2022-07-29T11:03:50.844Z,4.50
2022-07-29T11:06:26.395Z,3.70
2022-07-29T11:09:25.768Z,3.83
2022-07-29T11:12:26.401Z,3.57
2022-07-29T11:15:01.395Z,3.47
2022-07-29T11:17:47.224Z,4.50
2022-07-29T11:20:33.682Z,3.90
2022-07-29T11:23:02.257Z,4.90
2022-07-29T11:25:50.728Z,4.57
2022-07-29T11:28:25.268Z,4.90
2022-07-29T11:30:56.151Z,5.00
2022-07-29T11:33:54.660Z,5.27
2022-07-29T11:36:17.891Z,5.27
2022-07-29T11:38:45.553Z,4.47
2022-07-29T11:41:27.212Z,5.30
2022-07-29T11:43:56.720Z,4.23
2022-07-29T11:46:49.612Z,4.03
2022-07-29T11:49:31.781Z,4.23
2022-07-29T11:52:02.327Z,4.20
2022-07-29T11:54:38.969Z,4.10
2022-07-29T11:57:22.400Z,2.77
2022-07-29T11:59:50.732Z,3.30
2022-07-29T12:02:37.642Z,4.13
2022-07-29T12:05:10.399Z,3.40
2022-07-29T12:07:39.687Z,4.20
2022-07-29T12:10:11.621Z,3.27
2022-07-29T12:12:54.094Z,3.10
2022-07-29T12:15:24.996Z,3.23
2022-07-29T12:18:16.538Z,3.27
2022-07-29T12:20:47.532Z,3.63
2022-07-29T12:23:17.353Z,3.03
2022-07-29T12:25:49.790Z,3.60
2022-07-29T12:28:26.867Z,3.00
2022-07-29T12:30:55.035Z,3.53
2022-07-29T12:33:25.480Z,3.60
2022-07-29T12:36:06.845Z,2.43
2022-07-29T12:38:35.569Z,3.50
2022-07-29T12:41:04.470Z,3.57
2022-07-29T12:43:33.141Z,3.20
2022-07-29T12:46:14.310Z,3.03
2022-07-29T12:48:45.312Z,3.00
2022-07-29T12:51:15.324Z,3.50
2022-07-29T12:53:43.437Z,3.10
2022-07-29T12:56:41.882Z,3.60
2022-07-29T12:59:14.339Z,3.00
2022-07-29T13:01:41.984Z,2.70
2022-07-29T13:04:11.148Z,3.30
2022-07-29T13:06:41.386Z,3.00
2022-07-29T13:09:14.314Z,3.10
2022-07-29T13:11:48.197Z,3.43
2022-07-29T13:14:32.424Z,3.90
2022-07-29T13:17:07.078Z,3.23
2022-07-29T13:19:38.313Z,3.57
2022-07-29T13:22:06.566Z,3.47
2022-07-29T13:24:34.255Z,4.10
2022-07-29T13:27:01.832Z,4.57
2022-07-29T13:29:33.140Z,4.73
2022-07-29T13:32:01.177Z,3.67
2022-07-29T13:34:29.220Z,3.90
2022-07-29T13:36:58.239Z,3.63
2022-07-29T13:39:25.884Z,3.97
2022-07-29T13:41:53.667Z,3.77
2022-07-29T13:44:21.283Z,3.10
2022-07-29T13:46:48.924Z,3.87
2022-07-29T13:49:16.640Z,3.70
2022-07-29T13:51:44.352Z,3.90
2022-07-29T13:54:13.321Z,4.40
2022-07-29T13:56:40.983Z,4.80
2022-07-29T13:59:09.715Z,4.40
2022-07-29T14:01:37.806Z,4.00
2022-07-29T14:04:05.536Z,3.60
2022-07-29T14:06:33.196Z,4.00
2022-07-29T14:09:00.781Z,3.50
2022-07-29T14:11:29.840Z,4.27
2022-07-29T14:13:57.451Z,4.23
2022-07-29T14:16:25.104Z,4.43
2022-07-29T14:18:52.761Z,4.30
2022-07-29T14:21:20.479Z,3.43
2022-07-29T14:23:48.604Z,3.77
2022-07-29T14:26:21.669Z,3.20
2022-07-29T14:28:53.296Z,3.83
2022-07-29T14:31:21.032Z,2.87
2022-07-29T14:33:49.144Z,3.47
2022-07-29T14:36:17.230Z,3.10
2022-07-29T14:38:44.845Z,3.00
2022-07-29T14:41:12.777Z,3.80
2022-07-29T14:43:40.429Z,3.60
2022-07-29T14:46:09.407Z,3.70
2022-07-29T14:48:37.234Z,3.83
2022-07-29T14:51:05.309Z,3.40
2022-07-29T14:53:33.703Z,4.10
2022-07-29T14:56:15.299Z,3.93
2022-07-29T14:58:49.165Z,3.70
2022-07-29T15:01:21.040Z,4.00
2022-07-29T15:03:48.661Z,3.57
2022-07-29T15:06:16.306Z,3.33
2022-07-29T15:08:43.917Z,3.13
2022-07-29T15:11:11.527Z,4.43
2022-07-29T15:13:39.753Z,3.23
2022-07-29T15:16:07.614Z,3.50
2022-07-29T15:18:38.618Z,3.00
2022-07-29T15:21:07.765Z,3.93
2022-07-29T15:23:37.272Z,4.23
2022-07-29T15:26:06.027Z,3.40
2022-07-29T15:28:33.689Z,3.23
2022-07-29T15:31:01.288Z,4.10
2022-07-29T15:33:28.882Z,3.20
2022-07-29T15:35:59.100Z,2.97
2022-07-29T15:38:28.911Z,3.37
2022-07-29T15:40:56.821Z,3.20
2022-07-29T15:43:24.580Z,3.80
2022-07-29T15:46:11.660Z,4.53
2022-07-29T15:48:41.337Z,3.67
2022-07-29T15:51:10.379Z,4.13
2022-07-29T15:53:38.152Z,3.90
2022-07-29T15:56:06.268Z,3.80
2022-07-29T15:58:33.885Z,3.20
2022-07-29T16:01:01.609Z,4.00
2022-07-29T16:03:29.327Z,4.00
2022-07-29T16:05:57.181Z,3.30
2022-07-29T16:08:26.135Z,4.00
2022-07-29T16:10:53.842Z,4.13
2022-07-29T16:13:22.861Z,4.37
2022-07-29T16:16:02.481Z,3.83
2022-07-29T16:18:30.912Z,4.23
2022-07-29T16:20:58.755Z,3.77
2022-07-29T16:23:27.742Z,4.50
2022-07-29T16:26:00.202Z,5.13
2022-07-29T16:28:28.635Z,3.83
2022-07-29T16:30:57.148Z,4.47
2022-07-29T16:33:25.253Z,4.00
2022-07-29T16:35:52.901Z,4.20
2022-07-29T16:38:20.805Z,4.30
2022-07-29T16:40:49.809Z,4.23
2022-07-29T16:43:17.590Z,4.37
2022-07-29T16:45:46.644Z,3.90
2022-07-29T16:48:14.512Z,4.60
2022-07-29T16:50:43.190Z,4.10
2022-07-29T16:53:12.014Z,3.30
2022-07-29T16:55:42.079Z,3.93
2022-07-29T16:58:13.128Z,4.80
2022-07-29T17:00:40.888Z,4.80
2022-07-29T17:03:08.596Z,4.53
2022-07-29T17:05:52.226Z,5.07
2022-07-29T17:08:22.109Z,4.73
2022-07-29T17:10:49.742Z,4.00
2022-07-29T17:13:18.713Z,4.13
2022-07-29T17:15:46.479Z,4.00
2022-07-29T17:18:14.106Z,5.23
2022-07-29T17:20:42.080Z,4.27
2022-07-29T17:23:09.787Z,4.87
2022-07-29T17:25:37.379Z,3.80
2022-07-29T17:28:05.297Z,3.93
2022-07-29T17:30:34.224Z,3.30
2022-07-29T17:33:01.838Z,3.50
2022-07-29T17:35:47.027Z,3.83
2022-07-29T17:38:14.619Z,3.30
2022-07-29T17:40:42.270Z,3.93
2022-07-29T17:43:10.220Z,3.73
2022-07-29T17:45:48.792Z,4.00
2022-07-29T17:48:16.925Z,3.07
2022-07-29T17:50:44.639Z,3.33
2022-07-29T17:53:16.341Z,3.20
2022-07-29T17:55:45.660Z,4.20
2022-07-29T17:58:13.718Z,3.90
2022-07-29T18:00:43.237Z,3.47
2022-07-29T18:03:11.479Z,3.57
2022-07-29T18:05:39.166Z,3.63
2022-07-29T18:08:07.147Z,3.67
2022-07-29T18:10:34.955Z,3.80
2022-07-29T18:13:03.993Z,3.43
2022-07-29T18:15:31.912Z,3.23
2022-07-29T18:18:00.938Z,3.13
2022-07-29T18:20:28.715Z,3.50
2022-07-29T18:22:56.327Z,4.53
2022-07-29T18:25:24.376Z,3.43
2022-07-29T18:27:52.069Z,2.90
2022-07-29T18:30:20.188Z,2.93
2022-07-29T18:33:18.242Z,2.83
2022-07-29T18:35:38.303Z,3.30
2022-07-29T18:38:06.005Z,3.03
2022-07-29T18:40:33.833Z,2.90
2022-07-29T18:43:01.412Z,3.03
2022-07-29T18:45:29.108Z,3.00
2022-07-29T18:47:56.881Z,3.50
2022-07-29T18:50:29.215Z,3.67
2022-07-29T18:53:01.104Z,3.40
2022-07-29T18:55:28.753Z,3.50
2022-07-29T18:57:57.422Z,3.13
2022-07-29T19:00:26.724Z,3.40
2022-07-29T19:02:54.638Z,2.90
2022-07-29T19:05:22.924Z,2.73
2022-07-29T19:07:50.654Z,2.90
2022-07-29T19:10:19.720Z,3.10
2022-07-29T19:12:47.332Z,3.40
2022-07-29T19:15:20.491Z,3.30
2022-07-29T19:17:48.651Z,2.80
2022-07-29T19:20:16.759Z,3.00
2022-07-29T19:22:44.420Z,3.03
2022-07-29T19:25:12.094Z,3.00
2022-07-29T19:27:41.192Z,3.40
2022-07-29T19:30:10.537Z,3.27
2022-07-29T19:32:38.774Z,3.27
2022-07-29T19:35:25.795Z,2.73
2022-07-29T19:37:54.145Z,3.30
2022-07-29T19:40:23.077Z,3.33
2022-07-29T19:42:52.875Z,3.70
2022-07-29T19:45:21.417Z,2.87
2022-07-29T19:47:50.040Z,3.47
2022-07-29T19:50:18.085Z,3.10
2022-07-29T19:52:47.001Z,3.47
2022-07-29T19:55:15.300Z,2.73
2022-07-29T19:57:42.898Z,3.33
2022-07-29T20:00:13.528Z,3.07
2022-07-29T20:02:42.839Z,3.83
2022-07-29T20:05:11.424Z,2.93
2022-07-29T20:07:39.886Z,3.30
2022-07-29T20:10:09.840Z,4.10
2022-07-29T20:12:38.133Z,3.87
2022-07-29T20:15:08.430Z,2.90
2022-07-29T20:17:39.881Z,3.07
2022-07-29T20:20:09.206Z,3.27
2022-07-29T20:22:36.955Z,3.77
2022-07-29T20:25:05.509Z,3.50
2022-07-29T20:27:33.085Z,4.20
2022-07-29T20:30:00.724Z,3.80
2022-07-29T20:32:28.316Z,3.97
2022-07-29T20:34:57.273Z,4.30
2022-07-29T20:37:24.875Z,4.00
2022-07-29T20:39:52.538Z,4.80
2022-07-29T20:42:20.172Z,4.17
2022-07-29T20:44:50.562Z,2.90
2022-07-29T20:47:18.144Z,3.90
2022-07-29T20:49:45.770Z,3.60
2022-07-29T20:52:14.731Z,4.83
2022-07-29T20:54:42.334Z,3.37
2022-07-29T20:57:09.946Z,4.20
2022-07-29T20:59:37.721Z,4.23
2022-07-29T21:02:05.833Z,4.37
2022-07-29T21:04:33.441Z,3.93
2022-07-29T21:07:01.768Z,3.70
2022-07-29T21:09:31.175Z,4.30
2022-07-29T21:11:59.828Z,3.30
2022-07-29T21:14:46.640Z,3.73
2022-07-29T21:17:14.960Z,4.23
2022-07-29T21:19:43.085Z,4.60
2022-07-29T21:22:11.268Z,4.20
2022-07-29T21:24:40.233Z,4.30
2022-07-29T21:27:25.839Z,4.10
2022-07-29T21:29:53.523Z,4.70
2022-07-29T21:32:27.309Z,4.77
2022-07-29T21:34:57.955Z,5.07
2022-07-29T21:37:25.783Z,4.53
2022-07-29T21:39:54.719Z,4.70
2022-07-29T21:42:22.420Z,5.07
2022-07-29T21:44:50.256Z,5.80
2022-07-29T21:47:17.957Z,4.87
2022-07-29T21:49:46.395Z,4.80
2022-07-29T21:52:14.326Z,5.10
2022-07-29T21:54:42.633Z,5.07
2022-07-29T21:57:11.575Z,5.23
2022-07-29T21:59:39.198Z,4.90
2022-07-29T22:02:06.905Z,5.13
2022-07-29T22:04:35.764Z,5.27
2022-07-29T22:07:03.940Z,5.20
2022-07-29T22:09:32.215Z,4.80
2022-07-29T22:11:59.857Z,5.17
2022-07-29T22:14:29.011Z,4.40
2022-07-29T22:16:58.114Z,4.87
2022-07-29T22:19:27.344Z,4.83
2022-07-29T22:21:55.397Z,4.93
2022-07-29T22:24:23.121Z,5.20
2022-07-29T22:26:50.743Z,4.50
2022-07-29T22:29:19.034Z,5.37
2022-07-29T22:31:47.988Z,6.10
2022-07-29T22:34:15.967Z,4.23
2022-07-29T22:36:43.608Z,4.80
2022-07-29T22:39:11.273Z,5.10
2022-07-29T22:41:43.278Z,4.73
2022-07-29T22:44:10.941Z,5.37
2022-07-29T22:46:38.889Z,4.93
2022-07-29T22:49:07.887Z,5.47
2022-07-29T22:51:35.617Z,5.07
2022-07-29T22:54:03.839Z,5.10
2022-07-29T22:56:31.563Z,5.30
2022-07-29T22:58:59.207Z,5.33
2022-07-29T23:01:37.575Z,4.70
2022-07-29T23:04:06.235Z,4.50
2022-07-29T23:06:35.839Z,5.03
2022-07-29T23:09:03.517Z,4.30
2022-07-29T23:11:31.743Z,4.50
2022-07-29T23:13:59.347Z,4.80
2022-07-29T23:16:27.178Z,4.80
2022-07-29T23:18:55.002Z,4.67
2022-07-29T23:21:23.056Z,4.93
2022-07-29T23:23:52.000Z,5.10
2022-07-29T23:26:19.629Z,4.57
2022-07-29T23:28:47.239Z,4.90
2022-07-29T23:31:14.854Z,4.90
2022-07-29T23:33:42.667Z,4.40
2022-07-29T23:36:10.303Z,4.40
2022-07-29T23:38:40.760Z,4.70
2022-07-29T23:41:09.931Z,4.83
2022-07-29T23:43:38.212Z,5.20
2022-07-29T23:46:06.409Z,4.63
2022-07-29T23:48:34.676Z,4.70
2022-07-29T23:51:02.418Z,5.37
2022-07-29T23:53:30.288Z,4.13
2022-07-29T23:55:58.165Z,4.60
2022-07-29T23:58:27.180Z,5.37
